Huvudsida
METAR-TAF:

METAR-TAF

Flygplatser :

Nancy, Frankrike

latitud: 48-35N, longitud: 005-58E, höjd: 336 m

Aktuellt väderrapport

Denna rapport gjordes för 37 minuter sedan, klockan 15:30 UTC
Vind 14 kt från nord/nordost, varierande mellan nord och nordost
Temperatur 6°C
Fuktighet 49%
Tryck 1022 hPa
Sikt 10 km eller mer
Få moln på en höjd av 4100 ft
Spridda moln på en höjd av 4700 ft
Mulet på en höjd av 6800 ft

METAR: LFSO 291530Z AUTO 02014KT 350V050 9999 FEW041 SCT047 OVC068 06/M04 Q1022

Tid: 18:07 (16:07 UTC)


TAF: saknas

Aktuella väderrapporter och prognoser från 4000 flygplatser (METAR- och TAF-rapporter).

De tillgängliga stationerna syns som gula och röda prickar på kartan.

För musen över prickarna för att se namnen på stationerna.

Klicka sedan för att få väderrapporter och prognoser.

För att ändra kartan: Klicka på de gröna knapparna med ett svart kors på för att zooma in; den gröna knappen med ett streck på för att zooma ut; eller på de gröna pilarna för angränsande kartor.


METAR-TAF: